sensor_id;sensor_type;location;lat;lon;timestamp;pressure;altitude;pressure_sealevel;temperature;humidity
70982;BME280;58640;51.320;9.456;2023-05-31T00:03:45;100184.88;;;13.62;74.72
70982;BME280;58640;51.320;9.456;2023-05-31T06:21:38;100248.53;;;36.95;18.13
70982;BME280;58640;51.320;9.456;2023-05-31T06:24:15;100255.47;;;38.33;17.64
70982;BME280;58640;51.320;9.456;2023-05-31T06:26:41;100254.41;;;37.70;17.09
70982;BME280;58640;51.320;9.456;2023-05-31T06:29:07;100253.47;;;34.40;20.26
70982;BME280;58640;51.320;9.456;2023-05-31T06:31:33;100256.28;;;36.25;19.81
70982;BME280;58640;51.320;9.456;2023-05-31T06:33:59;100252.75;;;36.50;18.26
70982;BME280;58640;51.320;9.456;2023-05-31T06:36:24;100244.88;;;36.95;17.82
70982;BME280;58640;51.320;9.456;2023-05-31T06:38:50;100259.63;;;38.27;16.67
70982;BME280;58640;51.320;9.456;2023-05-31T06:41:15;100253.63;;;37.44;17.09
70982;BME280;58640;51.320;9.456;2023-05-31T06:43:41;100256.59;;;35.31;19.02
70982;BME280;58640;51.320;9.456;2023-05-31T06:46:29;100253.81;;;38.81;16.78
70982;BME280;58640;51.320;9.456;2023-05-31T06:48:56;100266.50;;;38.67;16.32
70982;BME280;58640;51.320;9.456;2023-05-31T06:51:21;100264.22;;;36.88;17.89
70982;BME280;58640;51.320;9.456;2023-05-31T06:53:49;100256.31;;;40.25;14.63
70982;BME280;58640;51.320;9.456;2023-05-31T06:56:14;100261.25;;;39.48;15.56
70982;BME280;58640;51.320;9.456;2023-05-31T06:58:41;100263.25;;;40.64;14.29
70982;BME280;58640;51.320;9.456;2023-05-31T07:01:06;100260.91;;;38.87;15.86
70982;BME280;58640;51.320;9.456;2023-05-31T07:03:32;100258.41;;;38.07;17.39
70982;BME280;58640;51.320;9.456;2023-05-31T07:05:57;100251.63;;;38.37;17.14
70982;BME280;58640;51.320;9.456;2023-05-31T07:08:23;100254.25;;;38.04;16.92
70982;BME280;58640;51.320;9.456;2023-05-31T07:10:48;100255.38;;;39.32;15.85
70982;BME280;58640;51.320;9.456;2023-05-31T07:13:13;100245.31;;;39.64;15.22
70982;BME280;58640;51.320;9.456;2023-05-31T07:15:39;100242.81;;;39.17;15.81
70982;BME280;58640;51.320;9.456;2023-05-31T07:18:05;100255.06;;;39.13;15.83
70982;BME280;58640;51.320;9.456;2023-05-31T07:20:30;100251.41;;;40.34;14.75
70982;BME280;58640;51.320;9.456;2023-05-31T07:22:57;100244.91;;;39.86;14.46
70982;BME280;58640;51.320;9.456;2023-05-31T07:25:23;100237.22;;;39.62;15.46
70982;BME280;58640;51.320;9.456;2023-05-31T07:27:48;100237.25;;;41.10;13.89
70982;BME280;58640;51.320;9.456;2023-05-31T07:30:14;100239.84;;;40.63;14.22
70982;BME280;58640;51.320;9.456;2023-05-31T07:32:39;100235.63;;;40.21;15.30
70982;BME280;58640;51.320;9.456;2023-05-31T07:35:05;100233.75;;;38.13;17.46
70982;BME280;58640;51.320;9.456;2023-05-31T07:37:31;100234.00;;;38.78;17.17
70982;BME280;58640;51.320;9.456;2023-05-31T07:39:57;100228.28;;;40.29;16.03
70982;BME280;58640;51.320;9.456;2023-05-31T07:42:22;100217.09;;;37.53;17.18
70982;BME280;58640;51.320;9.456;2023-05-31T07:44:47;100219.28;;;36.53;17.91
70982;BME280;58640;51.320;9.456;2023-05-31T07:47:16;100217.00;;;37.87;15.83
70982;BME280;58640;51.320;9.456;2023-05-31T07:49:42;100216.63;;;39.17;15.26
70982;BME280;58640;51.320;9.456;2023-05-31T07:52:08;100210.22;;;37.25;17.92
70982;BME280;58640;51.320;9.456;2023-05-31T07:54:33;100211.50;;;38.78;16.79
70982;BME280;58640;51.320;9.456;2023-05-31T07:56:59;100211.00;;;38.96;15.53
70982;BME280;58640;51.320;9.456;2023-05-31T07:59:25;100204.09;;;37.94;16.47
70982;BME280;58640;51.320;9.456;2023-05-31T08:01:50;100192.72;;;32.67;21.20
70982;BME280;58640;51.320;9.456;2023-05-31T08:04:16;100194.97;;;30.57;25.31
70982;BME280;58640;51.320;9.456;2023-05-31T08:06:41;100199.03;;;29.47;27.37
70982;BME280;58640;51.320;9.456;2023-05-31T08:09:07;100189.88;;;29.46;26.49
70982;BME280;58640;51.320;9.456;2023-05-31T08:11:33;100189.09;;;28.71;28.02
70982;BME280;58640;51.320;9.456;2023-05-31T08:14:02;100185.75;;;28.74;26.73
70982;BME280;58640;51.320;9.456;2023-05-31T08:16:29;100182.41;;;29.37;26.63
70982;BME280;58640;51.320;9.456;2023-05-31T08:18:54;100179.31;;;32.51;22.29
70982;BME280;58640;51.320;9.456;2023-05-31T08:21:20;100182.88;;;35.97;18.65
70982;BME280;58640;51.320;9.456;2023-05-31T08:23:46;100175.75;;;36.47;17.61
70982;BME280;58640;51.320;9.456;2023-05-31T08:26:11;100176.63;;;37.91;17.36
70982;BME280;58640;51.320;9.456;2023-05-31T08:28:36;100166.88;;;36.80;18.84
70982;BME280;58640;51.320;9.456;2023-05-31T09:35:36;100148.72;;;31.38;20.00
70982;BME280;58640;51.320;9.456;2023-05-31T09:38:06;100152.53;;;30.46;20.29
70982;BME280;58640;51.320;9.456;2023-05-31T09:40:31;100137.47;;;29.55;20.18
70982;BME280;58640;51.320;9.456;2023-05-31T09:43:00;100132.59;;;31.40;19.45
70982;BME280;58640;51.320;9.456;2023-05-31T09:45:26;100127.13;;;32.01;18.58
70982;BME280;58640;51.320;9.456;2023-05-31T15:48:17;99842.47;;;23.42;35.91
70982;BME280;58640;51.320;9.456;2023-05-31T15:50:43;99838.94;;;23.30;36.32
70982;BME280;58640;51.320;9.456;2023-05-31T15:53:08;99825.00;;;23.20;36.46
70982;BME280;58640;51.320;9.456;2023-05-31T15:55:34;99829.47;;;23.09;36.70
70982;BME280;58640;51.320;9.456;2023-05-31T15:58:00;99817.66;;;23.09;36.51
70982;BME280;58640;51.320;9.456;2023-05-31T16:00:26;99821.06;;;23.28;36.49
70982;BME280;58640;51.320;9.456;2023-05-31T16:02:51;99822.50;;;23.18;36.44
70982;BME280;58640;51.320;9.456;2023-05-31T16:05:16;99816.59;;;23.10;36.40
70982;BME280;58640;51.320;9.456;2023-05-31T16:07:42;99812.19;;;23.09;35.93
70982;BME280;58640;51.320;9.456;2023-05-31T16:10:08;99813.38;;;23.13;36.69
70982;BME280;58640;51.320;9.456;2023-05-31T16:12:34;99822.00;;;23.05;36.75
70982;BME280;58640;51.320;9.456;2023-05-31T16:14:59;99807.03;;;22.96;36.37
70982;BME280;58640;51.320;9.456;2023-05-31T16:17:26;99815.66;;;22.88;36.93
70982;BME280;58640;51.320;9.456;2023-05-31T16:19:52;99812.47;;;22.79;37.09
70982;BME280;58640;51.320;9.456;2023-05-31T16:22:18;99813.97;;;22.87;37.30
70982;BME280;58640;51.320;9.456;2023-05-31T16:24:44;99812.56;;;22.84;37.28
70982;BME280;58640;51.320;9.456;2023-05-31T16:27:11;99802.09;;;22.98;37.25
70982;BME280;58640;51.320;9.456;2023-05-31T16:29:36;99797.16;;;22.83;38.23
70982;BME280;58640;51.320;9.456;2023-05-31T16:32:02;99812.38;;;22.74;38.56
70982;BME280;58640;51.320;9.456;2023-05-31T16:34:27;99805.56;;;22.77;38.23
70982;BME280;58640;51.320;9.456;2023-05-31T16:36:52;99801.94;;;22.88;37.44
70982;BME280;58640;51.320;9.456;2023-05-31T16:39:18;99804.00;;;22.81;37.79
70982;BME280;58640;51.320;9.456;2023-05-31T16:41:43;99804.72;;;22.76;37.66
70982;BME280;58640;51.320;9.456;2023-05-31T16:44:09;99799.63;;;22.68;37.90
70982;BME280;58640;51.320;9.456;2023-05-31T16:46:34;99802.88;;;22.65;38.29
70982;BME280;58640;51.320;9.456;2023-05-31T16:49:00;99789.91;;;22.49;37.90
70982;BME280;58640;51.320;9.456;2023-05-31T16:51:25;99790.97;;;22.60;38.62
70982;BME280;58640;51.320;9.456;2023-05-31T16:53:52;99789.66;;;22.62;38.83
70982;BME280;58640;51.320;9.456;2023-05-31T16:56:17;99783.44;;;22.67;38.37
70982;BME280;58640;51.320;9.456;2023-05-31T16:58:43;99784.69;;;22.76;38.31
70982;BME280;58640;51.320;9.456;2023-05-31T17:01:08;99787.81;;;22.68;38.37
70982;BME280;58640;51.320;9.456;2023-05-31T17:03:33;99782.25;;;22.63;38.42
70982;BME280;58640;51.320;9.456;2023-05-31T17:05:59;99791.47;;;22.57;38.49
70982;BME280;58640;51.320;9.456;2023-05-31T17:08:26;99785.03;;;22.51;38.11
70982;BME280;58640;51.320;9.456;2023-05-31T17:10:52;99784.91;;;22.46;37.98
70982;BME280;58640;51.320;9.456;2023-05-31T17:13:17;99779.44;;;22.46;38.18
70982;BME280;58640;51.320;9.456;2023-05-31T17:15:44;99780.75;;;22.44;38.72
70982;BME280;58640;51.320;9.456;2023-05-31T17:18:10;99777.06;;;22.38;39.14
70982;BME280;58640;51.320;9.456;2023-05-31T17:20:35;99778.66;;;22.23;38.71
70982;BME280;58640;51.320;9.456;2023-05-31T17:23:01;99772.50;;;22.16;39.16
70982;BME280;58640;51.320;9.456;2023-05-31T17:25:26;99776.03;;;22.28;39.42
70982;BME280;58640;51.320;9.456;2023-05-31T17:27:52;99772.38;;;22.22;39.84
70982;BME280;58640;51.320;9.456;2023-05-31T17:30:19;99775.69;;;22.24;39.32
70982;BME280;58640;51.320;9.456;2023-05-31T17:32:52;99776.16;;;22.21;39.50
70982;BME280;58640;51.320;9.456;2023-05-31T17:35:18;99769.03;;;22.09;38.87
70982;BME280;58640;51.320;9.456;2023-05-31T17:37:43;99767.16;;;22.09;38.96
70982;BME280;58640;51.320;9.456;2023-05-31T17:40:09;99774.88;;;22.12;38.92
70982;BME280;58640;51.320;9.456;2023-05-31T17:42:34;99768.47;;;22.07;38.21
70982;BME280;58640;51.320;9.456;2023-05-31T17:45:00;99761.81;;;22.03;38.79
70982;BME280;58640;51.320;9.456;2023-05-31T17:47:25;99768.56;;;22.12;38.50
70982;BME280;58640;51.320;9.456;2023-05-31T17:49:50;99760.00;;;22.08;39.09
70982;BME280;58640;51.320;9.456;2023-05-31T17:52:20;99766.31;;;22.09;39.26
70982;BME280;58640;51.320;9.456;2023-05-31T17:54:45;99760.09;;;22.13;39.06
70982;BME280;58640;51.320;9.456;2023-05-31T17:57:11;99759.91;;;22.03;39.68
70982;BME280;58640;51.320;9.456;2023-05-31T17:59:36;99757.19;;;21.92;40.44
70982;BME280;58640;51.320;9.456;2023-05-31T18:02:02;99756.69;;;21.95;39.92
70982;BME280;58640;51.320;9.456;2023-05-31T18:04:27;99757.66;;;21.89;39.89
70982;BME280;58640;51.320;9.456;2023-05-31T18:06:52;99759.31;;;21.90;40.01
70982;BME280;58640;51.320;9.456;2023-05-31T18:09:18;99756.13;;;21.81;39.97
70982;BME280;58640;51.320;9.456;2023-05-31T18:11:43;99763.63;;;21.86;39.44
70982;BME280;58640;51.320;9.456;2023-05-31T18:14:09;99750.91;;;21.80;39.80
70982;BME280;58640;51.320;9.456;2023-05-31T18:16:34;99749.69;;;21.76;39.63
70982;BME280;58640;51.320;9.456;2023-05-31T18:19:00;99744.56;;;21.67;40.28
70982;BME280;58640;51.320;9.456;2023-05-31T18:21:25;99746.25;;;21.57;40.74
70982;BME280;58640;51.320;9.456;2023-05-31T18:23:51;99754.09;;;21.53;40.90
70982;BME280;58640;51.320;9.456;2023-05-31T18:26:16;99748.25;;;21.50;40.92
70982;BME280;58640;51.320;9.456;2023-05-31T18:28:43;99752.81;;;21.44;41.90
70982;BME280;58640;51.320;9.456;2023-05-31T18:31:09;99741.13;;;21.49;41.22
70982;BME280;58640;51.320;9.456;2023-05-31T18:33:34;99749.22;;;21.44;41.02
70982;BME280;58640;51.320;9.456;2023-05-31T18:36:00;99744.22;;;21.41;41.14
70982;BME280;58640;51.320;9.456;2023-05-31T18:38:26;99741.84;;;21.33;41.67
70982;BME280;58640;51.320;9.456;2023-05-31T18:40:52;99748.47;;;21.25;42.76
70982;BME280;58640;51.320;9.456;2023-05-31T18:43:17;99756.22;;;21.17;42.61
70982;BME280;58640;51.320;9.456;2023-05-31T18:45:43;99756.47;;;21.15;43.25
70982;BME280;58640;51.320;9.456;2023-05-31T18:48:08;99753.84;;;21.09;43.58
70982;BME280;58640;51.320;9.456;2023-05-31T18:50:34;99748.53;;;20.96;43.17
70982;BME280;58640;51.320;9.456;2023-05-31T18:52:59;99744.63;;;20.92;45.82
70982;BME280;58640;51.320;9.456;2023-05-31T18:55:25;99747.00;;;20.88;44.34
70982;BME280;58640;51.320;9.456;2023-05-31T18:57:50;99748.63;;;20.78;43.78
70982;BME280;58640;51.320;9.456;2023-05-31T19:00:16;99750.44;;;20.84;45.39
70982;BME280;58640;51.320;9.456;2023-05-31T19:02:45;99760.63;;;20.77;44.54
70982;BME280;58640;51.320;9.456;2023-05-31T19:05:13;99761.22;;;20.79;44.13
70982;BME280;58640;51.320;9.456;2023-05-31T19:07:38;99751.34;;;20.78;43.27
70982;BME280;58640;51.320;9.456;2023-05-31T19:10:04;99754.88;;;20.67;44.71
70982;BME280;58640;51.320;9.456;2023-05-31T19:12:30;99752.84;;;20.62;44.86
70982;BME280;58640;51.320;9.456;2023-05-31T19:14:55;99750.25;;;20.67;43.49
70982;BME280;58640;51.320;9.456;2023-05-31T19:17:20;99746.91;;;20.65;43.35
70982;BME280;58640;51.320;9.456;2023-05-31T19:19:48;99755.34;;;20.64;43.37
70982;BME280;58640;51.320;9.456;2023-05-31T19:22:17;99756.75;;;20.55;43.54
70982;BME280;58640;51.320;9.456;2023-05-31T19:24:44;99758.25;;;20.51;43.53
70982;BME280;58640;51.320;9.456;2023-05-31T19:27:10;99757.94;;;20.47;43.44
70982;BME280;58640;51.320;9.456;2023-05-31T19:29:37;99760.28;;;20.44;43.20
70982;BME280;58640;51.320;9.456;2023-05-31T19:32:04;99755.19;;;20.47;43.33
70982;BME280;58640;51.320;9.456;2023-05-31T19:34:32;99753.72;;;20.45;44.33
70982;BME280;58640;51.320;9.456;2023-05-31T19:36:57;99761.16;;;20.26;45.35
70982;BME280;58640;51.320;9.456;2023-05-31T19:39:23;99762.88;;;20.20;45.93
70982;BME280;58640;51.320;9.456;2023-05-31T19:41:50;99766.91;;;20.18;46.17
70982;BME280;58640;51.320;9.456;2023-05-31T19:44:15;99771.22;;;20.07;46.50
70982;BME280;58640;51.320;9.456;2023-05-31T19:46:40;99769.56;;;20.06;46.53
70982;BME280;58640;51.320;9.456;2023-05-31T19:49:06;99773.03;;;19.95;46.94
70982;BME280;58640;51.320;9.456;2023-05-31T19:51:31;99774.53;;;19.91;46.96
70982;BME280;58640;51.320;9.456;2023-05-31T19:53:56;99777.81;;;19.82;47.21
70982;BME280;58640;51.320;9.456;2023-05-31T19:56:22;99781.59;;;19.81;46.91
70982;BME280;58640;51.320;9.456;2023-05-31T19:58:47;99784.88;;;19.71;47.19
70982;BME280;58640;51.320;9.456;2023-05-31T20:01:13;99778.91;;;19.56;47.55
70982;BME280;58640;51.320;9.456;2023-05-31T20:03:38;99779.38;;;19.53;47.19
70982;BME280;58640;51.320;9.456;2023-05-31T20:06:04;99786.56;;;19.48;47.41
70982;BME280;58640;51.320;9.456;2023-05-31T20:08:29;99795.94;;;19.34;47.83
70982;BME280;58640;51.320;9.456;2023-05-31T20:10:55;99785.25;;;19.32;47.61
70982;BME280;58640;51.320;9.456;2023-05-31T20:13:21;99785.88;;;19.28;48.00
70982;BME280;58640;51.320;9.456;2023-05-31T20:15:46;99785.88;;;19.28;47.46
70982;BME280;58640;51.320;9.456;2023-05-31T20:18:12;99784.38;;;19.07;48.35
70982;BME280;58640;51.320;9.456;2023-05-31T20:20:37;99794.56;;;19.18;48.37
70982;BME280;58640;51.320;9.456;2023-05-31T20:23:02;99787.28;;;19.12;48.28
70982;BME280;58640;51.320;9.456;2023-05-31T20:25:28;99780.75;;;19.13;47.72
70982;BME280;58640;51.320;9.456;2023-05-31T20:27:53;99784.16;;;19.09;47.40
70982;BME280;58640;51.320;9.456;2023-05-31T20:30:19;99790.88;;;19.06;47.42
70982;BME280;58640;51.320;9.456;2023-05-31T20:32:44;99789.06;;;19.00;47.38
70982;BME280;58640;51.320;9.456;2023-05-31T20:35:09;99783.25;;;18.90;47.95
70982;BME280;58640;51.320;9.456;2023-05-31T20:37:35;99782.00;;;18.86;48.18
70982;BME280;58640;51.320;9.456;2023-05-31T20:40:00;99786.03;;;18.83;47.97
70982;BME280;58640;51.320;9.456;2023-05-31T20:42:26;99786.94;;;18.71;48.05
70982;BME280;58640;51.320;9.456;2023-05-31T20:44:52;99784.63;;;18.74;48.61
70982;BME280;58640;51.320;9.456;2023-05-31T20:47:17;99777.75;;;18.65;48.69
70982;BME280;58640;51.320;9.456;2023-05-31T20:49:43;99783.44;;;18.57;48.73
70982;BME280;58640;51.320;9.456;2023-05-31T20:52:09;99788.06;;;18.63;48.28
70982;BME280;58640;51.320;9.456;2023-05-31T20:54:34;99772.75;;;18.62;48.03
70982;BME280;58640;51.320;9.456;2023-05-31T20:57:00;99775.50;;;18.56;48.44
70982;BME280;58640;51.320;9.456;2023-05-31T20:59:27;99772.78;;;18.56;48.63
70982;BME280;58640;51.320;9.456;2023-05-31T21:01:53;99770.31;;;18.48;48.72
70982;BME280;58640;51.320;9.456;2023-05-31T21:04:19;99774.31;;;18.45;48.71
70982;BME280;58640;51.320;9.456;2023-05-31T21:06:44;99773.28;;;18.33;49.46
70982;BME280;58640;51.320;9.456;2023-05-31T21:09:10;99771.84;;;18.31;49.77
70982;BME280;58640;51.320;9.456;2023-05-31T21:11:35;99772.91;;;18.30;49.38
70982;BME280;58640;51.320;9.456;2023-05-31T21:14:00;99776.28;;;18.25;49.70
70982;BME280;58640;51.320;9.456;2023-05-31T21:16:26;99775.03;;;18.21;49.93
70982;BME280;58640;51.320;9.456;2023-05-31T21:18:51;99770.47;;;18.15;50.22
70982;BME280;58640;51.320;9.456;2023-05-31T21:21:16;99767.13;;;18.07;50.46
70982;BME280;58640;51.320;9.456;2023-05-31T21:23:42;99764.00;;;18.03;50.59
70982;BME280;58640;51.320;9.456;2023-05-31T21:26:07;99765.50;;;17.99;51.05
70982;BME280;58640;51.320;9.456;2023-05-31T21:28:33;99766.75;;;17.97;50.89
70982;BME280;58640;51.320;9.456;2023-05-31T21:30:58;99775.53;;;17.99;50.70
70982;BME280;58640;51.320;9.456;2023-05-31T21:33:24;99774.97;;;17.90;50.97
70982;BME280;58640;51.320;9.456;2023-05-31T21:35:49;99775.38;;;17.87;51.14
70982;BME280;58640;51.320;9.456;2023-05-31T21:38:15;99767.28;;;17.74;51.53
70982;BME280;58640;51.320;9.456;2023-05-31T21:40:40;99776.03;;;17.76;51.20
70982;BME280;58640;51.320;9.456;2023-05-31T21:43:05;99776.69;;;17.72;51.65
70982;BME280;58640;51.320;9.456;2023-05-31T21:45:31;99772.50;;;17.69;51.65
70982;BME280;58640;51.320;9.456;2023-05-31T21:47:56;99764.16;;;17.58;52.21
70982;BME280;58640;51.320;9.456;2023-05-31T21:50:30;99771.06;;;17.53;52.59
70982;BME280;58640;51.320;9.456;2023-05-31T21:53:03;99770.88;;;17.48;52.48
70982;BME280;58640;51.320;9.456;2023-05-31T21:55:29;99770.84;;;17.42;52.67
70982;BME280;58640;51.320;9.456;2023-05-31T21:57:57;99771.66;;;17.42;52.76
70982;BME280;58640;51.320;9.456;2023-05-31T22:00:22;99768.34;;;17.40;52.82
70982;BME280;58640;51.320;9.456;2023-05-31T22:02:47;99771.06;;;17.34;52.80
70982;BME280;58640;51.320;9.456;2023-05-31T22:05:13;99772.94;;;17.33;52.75
70982;BME280;58640;51.320;9.456;2023-05-31T22:07:38;99778.38;;;17.27;53.16
70982;BME280;58640;51.320;9.456;2023-05-31T22:10:05;99780.91;;;17.15;53.34
70982;BME280;58640;51.320;9.456;2023-05-31T22:12:31;99772.31;;;17.18;53.46
70982;BME280;58640;51.320;9.456;2023-05-31T22:14:57;99775.88;;;17.12;54.44
70982;BME280;58640;51.320;9.456;2023-05-31T22:17:22;99770.88;;;17.03;54.12
70982;BME280;58640;51.320;9.456;2023-05-31T22:19:51;99777.56;;;17.00;54.11
70982;BME280;58640;51.320;9.456;2023-05-31T22:22:18;99770.06;;;17.02;54.20
70982;BME280;58640;51.320;9.456;2023-05-31T22:24:43;99770.84;;;16.90;54.82
70982;BME280;58640;51.320;9.456;2023-05-31T22:27:09;99770.47;;;16.93;55.14
70982;BME280;58640;51.320;9.456;2023-05-31T22:29:34;99775.91;;;16.93;55.27
70982;BME280;58640;51.320;9.456;2023-05-31T22:31:59;99781.75;;;16.83;55.42
70982;BME280;58640;51.320;9.456;2023-05-31T22:34:25;99781.94;;;16.75;55.51
70982;BME280;58640;51.320;9.456;2023-05-31T22:36:52;99785.47;;;16.69;55.74
70982;BME280;58640;51.320;9.456;2023-05-31T22:39:17;99787.16;;;16.77;55.67
70982;BME280;58640;51.320;9.456;2023-05-31T22:41:43;99785.47;;;16.76;55.96
70982;BME280;58640;51.320;9.456;2023-05-31T22:44:08;99791.53;;;16.78;55.98
70982;BME280;58640;51.320;9.456;2023-05-31T22:46:33;99789.47;;;16.73;56.54
70982;BME280;58640;51.320;9.456;2023-05-31T22:48:59;99792.78;;;16.69;56.40
70982;BME280;58640;51.320;9.456;2023-05-31T22:51:24;99793.81;;;16.61;56.91
70982;BME280;58640;51.320;9.456;2023-05-31T22:53:50;99796.28;;;16.56;56.76
70982;BME280;58640;51.320;9.456;2023-05-31T22:56:15;99800.84;;;16.43;57.81
70982;BME280;58640;51.320;9.456;2023-05-31T22:58:40;99800.84;;;16.43;57.87
70982;BME280;58640;51.320;9.456;2023-05-31T23:01:06;99804.16;;;16.38;57.72
70982;BME280;58640;51.320;9.456;2023-05-31T23:03:32;99809.31;;;16.20;58.75
70982;BME280;58640;51.320;9.456;2023-05-31T23:05:57;99809.94;;;16.22;58.96
70982;BME280;58640;51.320;9.456;2023-05-31T23:08:23;99803.91;;;16.27;58.40
70982;BME280;58640;51.320;9.456;2023-05-31T23:10:50;99805.56;;;16.21;59.19
70982;BME280;58640;51.320;9.456;2023-05-31T23:13:22;99818.28;;;16.14;59.43
70982;BME280;58640;51.320;9.456;2023-05-31T23:15:50;99809.69;;;16.10;59.57
70982;BME280;58640;51.320;9.456;2023-05-31T23:18:16;99809.88;;;16.09;60.03
70982;BME280;58640;51.320;9.456;2023-05-31T23:20:42;99816.56;;;16.06;60.13
70982;BME280;58640;51.320;9.456;2023-05-31T23:23:09;99808.03;;;16.09;59.87
70982;BME280;58640;51.320;9.456;2023-05-31T23:25:34;99813.66;;;16.08;59.90
70982;BME280;58640;51.320;9.456;2023-05-31T23:28:00;99812.41;;;16.10;60.02
70982;BME280;58640;51.320;9.456;2023-05-31T23:30:25;99807.13;;;16.02;60.33
70982;BME280;58640;51.320;9.456;2023-05-31T23:32:51;99813.84;;;16.06;60.10
70982;BME280;58640;51.320;9.456;2023-05-31T23:35:16;99815.97;;;16.11;59.79
70982;BME280;58640;51.320;9.456;2023-05-31T23:37:41;99821.75;;;16.01;60.53
70982;BME280;58640;51.320;9.456;2023-05-31T23:40:07;99810.53;;;16.11;59.87
70982;BME280;58640;51.320;9.456;2023-05-31T23:42:34;99814.47;;;16.08;60.12
70982;BME280;58640;51.320;9.456;2023-05-31T23:44:59;99814.06;;;16.11;60.06
70982;BME280;58640;51.320;9.456;2023-05-31T23:47:25;99814.91;;;16.12;60.13
70982;BME280;58640;51.320;9.456;2023-05-31T23:49:51;99809.81;;;15.96;61.35
70982;BME280;58640;51.320;9.456;2023-05-31T23:52:16;99808.63;;;16.05;60.48
70982;BME280;58640;51.320;9.456;2023-05-31T23:54:42;99807.75;;;15.98;61.28
70982;BME280;58640;51.320;9.456;2023-05-31T23:57:08;99811.88;;;15.94;61.39
70982;BME280;58640;51.320;9.456;2023-05-31T23:59:33;99812.34;;;15.97;61.09
